Time;durP1;ratioP1;P1;durP2;ratioP2;P2;SDS_P1;SDS_P2;PMS_P1;PMS_P2;Temp;Humidity;BMP_temperature;BMP_pressure;BME280_temperature;BME280_humidity;BME280_pressure;Samples;Min_cycle;Max_cycle;Signal;HPM_P1;HPM_P2
2023/08/13 00:00:39;;;;;;;4.78;2.42;;;;;;;;;;5016881;28;20123;-45
2023/08/13 00:03:06;;;;;;;5.70;2.58;;;;;;;;;;5016730;28;20050;-45
2023/08/13 00:05:33;;;;;;;3.92;2.47;;;;;;;;;;5014887;28;20054;-43
2023/08/13 00:08:00;;;;;;;4.85;2.47;;;;;;;;;;5009531;28;20072;-47
2023/08/13 00:10:26;;;;;;;5.65;2.38;;;;;;;;;;4963821;28;57129;-43
2023/08/13 00:12:53;;;;;;;4.97;2.47;;;;;;;;;;4994696;28;56457;-44
2023/08/13 00:15:20;;;;;;;5.38;2.42;;;;;;;;;;5011617;28;20085;-48
2023/08/13 00:20:05;;;;;;;3.28;2.20;;;;;;;;;;5006397;27;58873;-49
2023/08/13 00:22:32;;;;;;;4.82;2.40;;;;;;;;;;5020385;28;20046;-46
2023/08/13 00:24:58;;;;;;;3.30;2.03;;;;;;;;;;5022753;28;20112;-41
2023/08/13 00:27:25;;;;;;;4.90;2.60;;;;;;;;;;5014005;28;20054;-41
2023/08/13 00:29:52;;;;;;;4.18;2.05;;;;;;;;;;5010848;28;20069;-42
2023/08/13 00:32:18;;;;;;;4.90;2.13;;;;;;;;;;5007296;28;20046;-48
2023/08/13 00:34:45;;;;;;;7.78;2.60;;;;;;;;;;5005658;28;20046;-43
2023/08/13 00:37:11;;;;;;;5.25;2.75;;;;;;;;;;5006056;28;20081;-42
2023/08/13 00:39:38;;;;;;;4.75;2.50;;;;;;;;;;4924274;28;57349;-41
2023/08/13 00:42:05;;;;;;;5.15;2.47;;;;;;;;;;4998189;28;20050;-44
2023/08/13 00:44:31;;;;;;;4.20;2.40;;;;;;;;;;5027769;28;20082;-40
2023/08/13 00:46:58;;;;;;;3.22;2.15;;;;;;;;;;5025783;28;20080;-42
2023/08/13 00:49:25;;;;;;;4.05;2.50;;;;;;;;;;5025179;28;20077;-45
2023/08/13 00:51:51;;;;;;;8.05;3.38;;;;;;;;;;5026321;28;20054;-44
2023/08/13 00:54:18;;;;;;;4.15;2.30;;;;;;;;;;5015923;28;20107;-46
2023/08/13 09:39:31;;;;;;;11.95;2.67;;;;;;;;;;5114875;27;20414;-42
2023/08/13 09:41:59;;;;;;;7.13;2.35;;;;;;;;;;5100690;28;20131;-45
2023/08/13 09:44:25;;;;;;;9.48;2.22;;;;;;;;;;5122271;28;20670;-43
2023/08/13 09:46:54;;;;;;;9.77;2.22;;;;;;;;;;5124504;27;20486;-43
2023/08/13 09:49:22;;;;;;;8.48;2.35;;;;;;;;;;5113342;27;20140;-44
2023/08/13 09:51:51;;;;;;;10.88;2.40;;;;;;;;;;5111249;28;20490;-47
2023/08/13 09:54:48;;;;;;;7.53;2.25;;;;;;;;;;5105543;27;20131;-46
2023/08/13 09:57:16;;;;;;;11.30;2.35;;;;;;;;;;5089495;27;20052;-43
2023/08/13 09:59:44;;;;;;;8.13;2.20;;;;;;;;;;5110217;27;20047;-45
2023/08/13 10:02:13;;;;;;;6.40;2.00;;;;;;;;;;5119634;27;20048;-44
2023/08/13 10:04:41;;;;;;;7.97;2.20;;;;;;;;;;5108578;27;20047;-47
2023/08/13 10:07:08;;;;;;;7.80;2.20;;;;;;;;;;5110098;27;20040;-43
2023/08/13 10:09:35;;;;;;;10.45;2.42;;;;;;;;;;5119078;27;20557;-46
2023/08/13 10:12:03;;;;;;;7.07;1.98;;;;;;;;;;5112010;28;20047;-45
2023/08/13 10:14:30;;;;;;;10.05;2.10;;;;;;;;;;5104163;27;20048;-42
2023/08/13 10:17:01;;;;;;;7.20;2.08;;;;;;;;;;5105532;27;20124;-42
2023/08/13 10:19:29;;;;;;;7.72;1.80;;;;;;;;;;5106375;27;20056;-43
2023/08/13 10:21:57;;;;;;;9.50;1.92;;;;;;;;;;5107767;28;20135;-42
2023/08/13 10:24:28;;;;;;;10.70;2.25;;;;;;;;;;5105344;27;20957;-42
2023/08/13 10:26:54;;;;;;;10.82;2.08;;;;;;;;;;5107893;27;20095;-42
2023/08/13 10:29:21;;;;;;;8.88;1.98;;;;;;;;;;5117138;27;20622;-44
2023/08/13 10:31:55;;;;;;;6.57;2.10;;;;;;;;;;5117756;28;20074;-43
2023/08/13 10:34:43;;;;;;;9.60;2.13;;;;;;;;;;5113915;27;20055;-43
2023/08/13 10:37:31;;;;;;;6.68;1.70;;;;;;;;;;5104758;28;20066;-44
2023/08/13 10:39:58;;;;;;;8.00;2.25;;;;;;;;;;5106381;28;20043;-45
2023/08/13 10:42:34;;;;;;;9.70;2.15;;;;;;;;;;5112325;27;20094;-45
2023/08/13 10:45:01;;;;;;;6.65;1.67;;;;;;;;;;5107977;28;20472;-46
2023/08/13 10:47:37;;;;;;;10.25;2.47;;;;;;;;;;5115536;27;20474;-45
2023/08/13 10:50:15;;;;;;;7.65;1.88;;;;;;;;;;5106273;28;20451;-46
2023/08/13 10:52:42;;;;;;;10.73;2.35;;;;;;;;;;5092804;28;20472;-43
2023/08/13 10:55:12;;;;;;;9.82;2.33;;;;;;;;;;5101286;28;20055;-44
2023/08/13 10:57:39;;;;;;;8.65;2.10;;;;;;;;;;5100774;28;20052;-44
2023/08/13 11:00:06;;;;;;;7.95;1.88;;;;;;;;;;5102407;28;20105;-46
2023/08/13 11:02:33;;;;;;;10.43;1.95;;;;;;;;;;5097992;28;20052;-43
2023/08/13 11:05:00;;;;;;;8.70;1.95;;;;;;;;;;5093473;28;20071;-45
2023/08/13 11:07:26;;;;;;;10.90;2.00;;;;;;;;;;5097021;28;20055;-45
2023/08/13 11:09:53;;;;;;;9.35;2.03;;;;;;;;;;5091847;28;20124;-43
2023/08/13 11:12:20;;;;;;;7.38;1.80;;;;;;;;;;5098166;28;20105;-47
2023/08/13 11:14:47;;;;;;;9.23;1.83;;;;;;;;;;5090838;28;20145;-46
2023/08/13 11:17:13;;;;;;;6.20;2.05;;;;;;;;;;5093129;28;20105;-43
2023/08/13 11:19:40;;;;;;;8.25;2.00;;;;;;;;;;5091220;28;20071;-46
2023/08/13 11:22:07;;;;;;;5.53;1.77;;;;;;;;;;5099730;28;20523;-46
2023/08/13 11:24:34;;;;;;;4.97;1.60;;;;;;;;;;5105281;28;20104;-45
2023/08/13 11:27:00;;;;;;;10.02;2.17;;;;;;;;;;5106911;28;20464;-44
2023/08/13 11:29:30;;;;;;;7.45;2.20;;;;;;;;;;5109667;28;20048;-45
2023/08/13 11:31:58;;;;;;;11.20;2.47;;;;;;;;;;5100870;28;20043;-45
2023/08/13 11:34:24;;;;;;;9.30;2.10;;;;;;;;;;5102607;28;20596;-44
2023/08/13 11:36:52;;;;;;;17.17;2.55;;;;;;;;;;5091113;28;20071;-47
2023/08/13 11:39:18;;;;;;;9.80;2.30;;;;;;;;;;5101171;28;20050;-42
2023/08/13 11:41:46;;;;;;;9.80;2.55;;;;;;;;;;5101381;28;20044;-45
2023/08/13 11:44:12;;;;;;;10.13;2.38;;;;;;;;;;5106226;28;20047;-43
2023/08/13 11:47:00;;;;;;;11.82;2.30;;;;;;;;;;5102559;28;20071;-45
2023/08/13 11:49:28;;;;;;;8.57;2.30;;;;;;;;;;5107243;28;20078;-43
2023/08/13 11:51:58;;;;;;;8.23;2.33;;;;;;;;;;5105862;28;20093;-46
2023/08/13 11:54:24;;;;;;;9.73;2.33;;;;;;;;;;5102584;28;20052;-42
2023/08/13 11:56:51;;;;;;;8.45;2.00;;;;;;;;;;5108039;28;20647;-44
2023/08/13 11:59:25;;;;;;;13.43;2.92;;;;;;;;;;5106974;28;20048;-44
2023/08/13 12:01:55;;;;;;;12.30;2.92;;;;;;;;;;5090309;28;20116;-48
2023/08/13 12:04:23;;;;;;;6.45;2.08;;;;;;;;;;5092906;27;20551;-44
2023/08/13 12:06:52;;;;;;;11.10;2.90;;;;;;;;;;5102828;28;20048;-44
2023/08/13 12:09:19;;;;;;;8.43;2.38;;;;;;;;;;5095996;28;20210;-44
2023/08/13 12:11:46;;;;;;;9.52;2.50;;;;;;;;;;5096127;28;20097;-42
2023/08/13 12:14:12;;;;;;;8.82;2.65;;;;;;;;;;5089002;28;20572;-42
2023/08/13 12:16:39;;;;;;;7.53;2.40;;;;;;;;;;5092267;28;20857;-43
2023/08/13 12:19:06;;;;;;;10.63;2.72;;;;;;;;;;5104276;28;20128;-44
2023/08/13 12:21:34;;;;;;;9.85;2.58;;;;;;;;;;5104848;28;20040;-44
2023/08/13 12:24:03;;;;;;;15.63;3.13;;;;;;;;;;5098423;28;20043;-43
2023/08/13 12:26:31;;;;;;;10.15;2.90;;;;;;;;;;5103477;28;20060;-44
2023/08/13 12:28:58;;;;;;;8.48;2.65;;;;;;;;;;5099805;27;20052;-43
2023/08/13 12:31:29;;;;;;;10.20;2.75;;;;;;;;;;5100015;28;20535;-44
2023/08/13 12:33:56;;;;;;;8.60;2.72;;;;;;;;;;5100529;28;20051;-47
2023/08/13 12:36:23;;;;;;;8.43;2.20;;;;;;;;;;5098979;28;20051;-44
2023/08/13 12:38:50;;;;;;;6.82;2.30;;;;;;;;;;5105593;27;20079;-44
2023/08/13 12:41:16;;;;;;;9.07;2.50;;;;;;;;;;5101660;27;20130;-43
2023/08/13 12:43:56;;;;;;;12.95;3.10;;;;;;;;;;5102167;28;20120;-43
2023/08/13 12:46:22;;;;;;;10.10;2.33;;;;;;;;;;5098813;28;20514;-44
2023/08/13 12:48:49;;;;;;;9.55;2.63;;;;;;;;;;5103442;28;20068;-45
2023/08/13 12:51:16;;;;;;;9.07;2.40;;;;;;;;;;5099754;28;20044;-44
2023/08/13 12:53:42;;;;;;;8.05;2.60;;;;;;;;;;5103434;28;20501;-43
2023/08/13 12:56:09;;;;;;;12.07;3.15;;;;;;;;;;5098172;28;20075;-44
2023/08/13 12:58:39;;;;;;;12.93;2.50;;;;;;;;;;5096633;28;20071;-43
2023/08/13 13:01:05;;;;;;;10.38;3.10;;;;;;;;;;5098895;28;20116;-44
2023/08/13 13:03:32;;;;;;;9.50;2.65;;;;;;;;;;5101750;28;20421;-43
2023/08/13 13:05:58;;;;;;;7.43;2.35;;;;;;;;;;5099507;28;20044;-44
2023/08/13 13:08:25;;;;;;;8.80;2.40;;;;;;;;;;5097154;28;20044;-43
2023/08/13 13:10:54;;;;;;;7.82;2.10;;;;;;;;;;5093616;28;20047;-44
2023/08/13 13:13:21;;;;;;;8.15;2.30;;;;;;;;;;5096810;27;20043;-45
2023/08/13 13:15:47;;;;;;;11.90;3.35;;;;;;;;;;5097268;28;20639;-44
2023/08/13 13:18:14;;;;;;;8.45;2.83;;;;;;;;;;5108405;28;20048;-47
2023/08/13 13:20:40;;;;;;;10.68;2.22;;;;;;;;;;5104601;28;20043;-48
2023/08/13 13:23:07;;;;;;;11.98;2.40;;;;;;;;;;5101546;28;20104;-45
2023/08/13 13:25:34;;;;;;;7.07;2.13;;;;;;;;;;5107705;28;20051;-48
2023/08/13 13:28:00;;;;;;;10.00;2.35;;;;;;;;;;5099966;28;20044;-47
2023/08/13 13:30:28;;;;;;;8.80;2.60;;;;;;;;;;5104254;28;20047;-46
2023/08/13 13:32:55;;;;;;;10.05;2.65;;;;;;;;;;5103124;28;20040;-45
2023/08/13 13:35:22;;;;;;;7.30;2.35;;;;;;;;;;5105825;28;20163;-45
2023/08/13 13:37:49;;;;;;;6.63;2.20;;;;;;;;;;5099208;28;20104;-46
2023/08/13 13:40:15;;;;;;;8.23;2.85;;;;;;;;;;5105610;28;20043;-45
2023/08/13 13:42:42;;;;;;;6.55;2.47;;;;;;;;;;5096928;28;20640;-47
2023/08/13 13:45:09;;;;;;;13.23;2.72;;;;;;;;;;5104785;28;20052;-47
2023/08/13 13:47:36;;;;;;;12.60;2.58;;;;;;;;;;5104947;28;20452;-44
2023/08/13 13:50:03;;;;;;;7.05;2.28;;;;;;;;;;5093054;28;20061;-49
2023/08/13 13:52:29;;;;;;;11.55;2.60;;;;;;;;;;5105749;28;20059;-46
2023/08/13 13:54:56;;;;;;;8.90;2.50;;;;;;;;;;5090849;28;20097;-44
2023/08/13 13:57:23;;;;;;;8.00;3.00;;;;;;;;;;5104866;28;20059;-44
2023/08/13 13:59:50;;;;;;;11.57;3.08;;;;;;;;;;5094919;28;20040;-45
2023/08/13 14:02:17;;;;;;;14.70;3.15;;;;;;;;;;5099070;28;20092;-46
2023/08/13 14:04:44;;;;;;;18.70;3.20;;;;;;;;;;5091529;28;20419;-46
2023/08/13 14:07:12;;;;;;;18.17;3.15;;;;;;;;;;5091360;28;20048;-45
2023/08/13 14:09:39;;;;;;;13.27;2.90;;;;;;;;;;5103390;28;20083;-44
2023/08/13 14:12:06;;;;;;;21.15;3.35;;;;;;;;;;5103415;28;20044;-47
2023/08/13 14:14:33;;;;;;;17.33;3.85;;;;;;;;;;5101666;28;20058;-45
2023/08/13 14:16:59;;;;;;;8.70;2.90;;;;;;;;;;5096605;28;20108;-47
2023/08/13 14:19:26;;;;;;;14.88;3.25;;;;;;;;;;5104540;28;20556;-44
2023/08/13 14:21:52;;;;;;;10.77;3.10;;;;;;;;;;5092583;28;20052;-45
2023/08/13 14:24:19;;;;;;;14.52;3.13;;;;;;;;;;5088570;28;20056;-47
2023/08/13 14:26:49;;;;;;;15.82;2.88;;;;;;;;;;5095370;28;20043;-46
2023/08/13 14:29:17;;;;;;;9.15;3.28;;;;;;;;;;5115279;27;20050;-46
2023/08/13 14:31:44;;;;;;;11.43;2.70;;;;;;;;;;5095853;28;20521;-46
2023/08/13 14:34:11;;;;;;;9.35;2.83;;;;;;;;;;5092699;28;20048;-46
2023/08/13 14:36:37;;;;;;;9.32;2.70;;;;;;;;;;5098326;28;20051;-44
2023/08/13 14:39:04;;;;;;;13.73;3.08;;;;;;;;;;5104426;28;20083;-47
2023/08/13 14:41:32;;;;;;;14.95;3.13;;;;;;;;;;5097180;28;20069;-46
2023/08/13 14:43:59;;;;;;;10.30;3.55;;;;;;;;;;5094975;27;20047;-45
2023/08/13 14:46:26;;;;;;;12.00;2.95;;;;;;;;;;5100272;28;20055;-44
2023/08/13 14:48:52;;;;;;;12.98;3.15;;;;;;;;;;5110217;28;20269;-44
2023/08/13 14:51:19;;;;;;;18.30;2.83;;;;;;;;;;5105805;28;20085;-44
2023/08/13 14:53:45;;;;;;;11.52;2.88;;;;;;;;;;5112134;28;20119;-48
2023/08/13 14:56:12;;;;;;;10.85;3.05;;;;;;;;;;5097979;28;20076;-50
2023/08/13 14:58:39;;;;;;;11.27;3.00;;;;;;;;;;5112361;27;20085;-45
2023/08/13 15:01:05;;;;;;;16.42;2.83;;;;;;;;;;5108801;27;20865;-46
2023/08/13 15:03:32;;;;;;;9.98;2.50;;;;;;;;;;5102832;28;20094;-45
2023/08/13 15:05:59;;;;;;;14.32;2.90;;;;;;;;;;5105017;27;20079;-48
2023/08/13 15:08:26;;;;;;;15.32;2.90;;;;;;;;;;5098318;28;20452;-45
2023/08/13 15:10:52;;;;;;;9.18;2.90;;;;;;;;;;5108938;28;20043;-44
2023/08/13 15:13:19;;;;;;;9.43;2.75;;;;;;;;;;5094321;28;20090;-49
2023/08/13 15:15:46;;;;;;;15.13;2.88;;;;;;;;;;5105883;28;20043;-47
2023/08/13 15:18:12;;;;;;;18.40;3.80;;;;;;;;;;5104502;28;20044;-49
2023/08/13 15:20:39;;;;;;;9.43;3.40;;;;;;;;;;5100533;28;20060;-45
2023/08/13 15:23:06;;;;;;;11.48;3.13;;;;;;;;;;5102056;27;20059;-43
2023/08/13 15:25:33;;;;;;;15.65;3.05;;;;;;;;;;5103810;27;20060;-46
2023/08/13 15:28:20;;;;;;;12.45;2.95;;;;;;;;;;5097114;28;20065;-47
2023/08/13 15:30:46;;;;;;;15.55;3.00;;;;;;;;;;5095884;27;20051;-47
2023/08/13 15:33:13;;;;;;;16.05;3.20;;;;;;;;;;5113919;27;20070;-46
2023/08/13 15:35:56;;;;;;;10.45;2.63;;;;;;;;;;5097284;27;20044;-46
2023/08/13 15:38:24;;;;;;;13.75;3.03;;;;;;;;;;5110696;27;20618;-46
2023/08/13 15:40:51;;;;;;;11.48;3.75;;;;;;;;;;5101678;27;20043;-46
2023/08/13 15:43:18;;;;;;;16.63;4.57;;;;;;;;;;5100651;28;20040;-45
2023/08/13 15:45:44;;;;;;;17.65;6.10;;;;;;;;;;5092252;28;20079;-47
2023/08/13 15:48:11;;;;;;;21.83;8.13;;;;;;;;;;5090896;28;20048;-45
2023/08/13 15:50:38;;;;;;;23.50;9.05;;;;;;;;;;5096110;27;20444;-46
2023/08/13 15:53:05;;;;;;;33.88;13.55;;;;;;;;;;5098708;28;20097;-46
2023/08/13 15:55:32;;;;;;;49.78;22.17;;;;;;;;;;5093027;28;20473;-45
2023/08/13 15:57:58;;;;;;;57.67;27.90;;;;;;;;;;5100497;28;20043;-47
2023/08/13 16:00:25;;;;;;;71.72;31.77;;;;;;;;;;5096457;28;20048;-46
2023/08/13 16:02:52;;;;;;;62.13;28.75;;;;;;;;;;5092375;28;20047;-47
2023/08/13 16:05:19;;;;;;;65.57;30.77;;;;;;;;;;5100603;28;20055;-44
2023/08/13 16:07:47;;;;;;;70.30;33.95;;;;;;;;;;5096316;28;20128;-44
2023/08/13 16:10:14;;;;;;;61.08;30.83;;;;;;;;;;5096820;28;20039;-45
2023/08/13 16:12:41;;;;;;;75.25;31.13;;;;;;;;;;5089569;27;20116;-45
2023/08/13 16:15:09;;;;;;;68.25;31.90;;;;;;;;;;5090915;28;20569;-45
2023/08/13 16:17:39;;;;;;;67.72;33.30;;;;;;;;;;5097649;28;20048;-46
2023/08/13 16:20:08;;;;;;;63.90;31.50;;;;;;;;;;5104013;28;20050;-45
2023/08/13 16:22:40;;;;;;;71.53;32.03;;;;;;;;;;5095346;27;20074;-45
2023/08/13 16:25:07;;;;;;;53.30;28.48;;;;;;;;;;5117565;27;20047;-43
2023/08/13 16:27:34;;;;;;;56.83;25.83;;;;;;;;;;5107442;27;20135;-44
2023/08/13 16:30:01;;;;;;;56.90;23.40;;;;;;;;;;5106934;27;20104;-44
2023/08/13 16:32:28;;;;;;;47.35;23.38;;;;;;;;;;5100377;28;20072;-47
2023/08/13 16:34:56;;;;;;;55.13;24.15;;;;;;;;;;5103676;28;20493;-44
2023/08/13 16:37:22;;;;;;;48.25;23.05;;;;;;;;;;5109686;28;20059;-44
2023/08/13 16:39:49;;;;;;;51.03;23.30;;;;;;;;;;5095200;28;20085;-45
2023/08/13 16:42:15;;;;;;;46.85;21.05;;;;;;;;;;5101509;28;20180;-46
2023/08/13 16:44:43;;;;;;;48.67;21.15;;;;;;;;;;5109995;27;20043;-44
2023/08/13 16:47:09;;;;;;;44.92;20.67;;;;;;;;;;5113179;27;20074;-47
2023/08/13 16:49:36;;;;;;;46.45;19.85;;;;;;;;;;5095528;28;20100;-44
2023/08/13 16:52:03;;;;;;;47.45;19.60;;;;;;;;;;5102538;28;20047;-44
2023/08/13 16:54:29;;;;;;;41.55;17.80;;;;;;;;;;5102255;28;20083;-49
2023/08/13 16:56:56;;;;;;;40.83;17.00;;;;;;;;;;5098648;28;20070;-48
2023/08/13 16:59:22;;;;;;;39.50;16.58;;;;;;;;;;5102446;28;20113;-49
2023/08/13 17:01:49;;;;;;;33.47;15.75;;;;;;;;;;5097488;28;20565;-45
2023/08/13 17:04:16;;;;;;;37.50;14.98;;;;;;;;;;5092334;28;20094;-44
2023/08/13 17:06:42;;;;;;;34.13;14.93;;;;;;;;;;5103136;28;20444;-45
2023/08/13 17:09:09;;;;;;;34.55;14.65;;;;;;;;;;5096854;28;20083;-46
2023/08/13 17:11:36;;;;;;;34.88;14.80;;;;;;;;;;5099734;28;20047;-44
2023/08/13 17:14:02;;;;;;;39.10;15.15;;;;;;;;;;5098104;27;20519;-47
2023/08/13 17:16:29;;;;;;;36.63;14.23;;;;;;;;;;5090091;28;20824;-43
2023/08/13 17:18:56;;;;;;;31.45;12.30;;;;;;;;;;5098646;28;20051;-41
2023/08/13 17:21:23;;;;;;;34.78;13.65;;;;;;;;;;5101260;28;20097;-46
2023/08/13 17:23:50;;;;;;;34.15;12.32;;;;;;;;;;5097221;28;20048;-46
2023/08/13 17:26:16;;;;;;;32.60;12.75;;;;;;;;;;5103536;28;20067;-45
2023/08/13 17:28:43;;;;;;;30.52;11.55;;;;;;;;;;5101493;28;20126;-45
2023/08/13 17:31:10;;;;;;;35.33;11.50;;;;;;;;;;5107163;28;20036;-45
2023/08/13 17:33:36;;;;;;;29.92;11.30;;;;;;;;;;5106623;28;20044;-46
2023/08/13 17:36:03;;;;;;;29.17;11.40;;;;;;;;;;5105624;28;20588;-47
2023/08/13 17:38:30;;;;;;;33.00;10.98;;;;;;;;;;5108873;28;20055;-43
2023/08/13 17:40:57;;;;;;;24.88;10.82;;;;;;;;;;5103570;28;20040;-44
2023/08/13 17:43:23;;;;;;;31.08;11.10;;;;;;;;;;5097920;28;20059;-45
2023/08/13 17:45:50;;;;;;;24.88;10.52;;;;;;;;;;5102381;28;20071;-44
2023/08/13 17:48:17;;;;;;;26.33;9.88;;;;;;;;;;5091590;28;20138;-44
2023/08/13 17:50:44;;;;;;;31.98;10.68;;;;;;;;;;5099119;28;20222;-45
2023/08/13 17:53:11;;;;;;;29.55;10.00;;;;;;;;;;5097885;28;20052;-46
2023/08/13 17:55:38;;;;;;;25.15;8.60;;;;;;;;;;5107018;28;20116;-46
2023/08/13 17:58:05;;;;;;;23.67;9.38;;;;;;;;;;5095521;28;20101;-48
2023/08/13 18:00:31;;;;;;;27.45;9.10;;;;;;;;;;5097589;28;20101;-44
2023/08/13 18:02:58;;;;;;;27.35;9.55;;;;;;;;;;5102368;28;20056;-46
2023/08/13 18:05:25;;;;;;;28.05;9.10;;;;;;;;;;5107228;28;20065;-43
2023/08/13 18:07:51;;;;;;;25.10;9.38;;;;;;;;;;5107190;28;20144;-46
2023/08/13 22:07:19;;;;;;;9.65;3.50;;;;;;;23.37;100.00;101189.78;4969465;28;20489;-51
2023/08/13 22:09:45;;;;;;;18.58;4.75;;;;;;;23.44;100.00;101206.38;4933335;28;141377;-50
2023/08/13 22:12:12;;;;;;;14.32;5.18;;;;;;;23.46;100.00;101210.28;4985455;28;20043;-50
2023/08/13 22:14:38;;;;;;;13.48;4.32;;;;;;;23.38;100.00;101214.03;4978718;28;20468;-51
2023/08/13 22:17:05;;;;;;;13.48;4.22;;;;;;;23.61;100.00;101208.22;4982329;28;20062;-57
2023/08/13 22:19:50;;;;;;;15.38;4.38;;;;;;;23.54;100.00;101207.81;4989506;28;20047;-49
2023/08/13 22:22:17;;;;;;;12.83;4.10;;;;;;;23.46;100.00;101218.81;4980169;28;20057;-45
2023/08/13 22:24:45;;;;;;;13.07;4.38;;;;;;;23.61;100.00;101215.94;4953444;28;20107;-49
2023/08/13 22:27:12;;;;;;;12.15;4.60;;;;;;;23.53;100.00;101220.47;4956336;28;20047;-51
2023/08/13 22:29:39;;;;;;;14.65;4.25;;;;;;;23.85;100.00;101227.88;4960852;28;20088;-50
2023/08/13 22:32:06;;;;;;;11.05;4.10;;;;;;;23.86;100.00;101229.44;4963623;28;20051;-49
2023/08/13 22:34:33;;;;;;;16.70;5.30;;;;;;;23.57;100.00;101216.13;4963954;28;20344;-50
2023/08/13 22:36:59;;;;;;;11.38;3.80;;;;;;;23.56;100.00;101217.41;4964125;28;20058;-52
2023/08/13 22:39:29;;;;;;;14.88;3.67;;;;;;;23.70;100.00;101225.09;4962914;28;20055;-50
2023/08/13 22:41:59;;;;;;;11.93;3.42;;;;;;;23.54;100.00;101231.31;4955970;28;20054;-51
2023/08/13 22:44:25;;;;;;;11.18;3.70;;;;;;;23.52;100.00;101222.50;4954571;28;20059;-50
2023/08/13 22:46:52;;;;;;;12.07;3.40;;;;;;;23.33;100.00;101228.94;4958361;28;20581;-47
2023/08/13 22:49:32;;;;;;;12.43;4.25;;;;;;;23.26;100.00;101230.13;4949221;28;20043;-48
2023/08/13 22:52:01;;;;;;;12.60;3.60;;;;;;;23.34;100.00;101227.66;4963537;28;20070;-48
2023/08/13 22:54:28;;;;;;;11.07;4.00;;;;;;;23.32;100.00;101231.00;4957443;28;20067;-50
2023/08/13 22:56:54;;;;;;;10.52;3.50;;;;;;;23.43;100.00;101230.38;4947553;28;20052;-45
2023/08/13 22:59:21;;;;;;;12.75;3.65;;;;;;;23.47;100.00;101228.09;4948475;29;20114;-45
2023/08/13 23:01:47;;;;;;;10.13;3.53;;;;;;;23.44;100.00;101221.38;4948808;28;20043;-45
2023/08/13 23:04:14;;;;;;;13.57;4.03;;;;;;;23.40;100.00;101225.69;4952214;28;20056;-49
2023/08/13 23:06:41;;;;;;;12.88;3.90;;;;;;;23.34;100.00;101222.78;4952618;28;20075;-47
2023/08/13 23:09:07;;;;;;;18.13;4.63;;;;;;;23.28;100.00;101216.22;4946983;28;20494;-47
2023/08/13 23:11:34;;;;;;;14.88;3.88;;;;;;;23.48;100.00;101204.91;4951851;29;20057;-50
2023/08/13 23:14:00;;;;;;;11.60;3.80;;;;;;;23.49;100.00;101212.13;4949206;28;20458;-48
2023/08/13 23:16:27;;;;;;;8.35;3.03;;;;;;;23.73;100.00;101206.31;4946167;28;20109;-49
2023/08/13 23:18:54;;;;;;;11.52;3.63;;;;;;;23.49;100.00;101208.53;4949027;29;20562;-46
2023/08/13 23:21:21;;;;;;;11.30;3.55;;;;;;;23.36;100.00;101208.84;4936964;28;20055;-51
2023/08/13 23:23:47;;;;;;;9.18;3.13;;;;;;;23.37;100.00;101206.81;4938744;29;20082;-49
2023/08/13 23:26:14;;;;;;;8.70;3.13;;;;;;;23.38;100.00;101206.31;4940013;29;20055;-47
2023/08/13 23:28:41;;;;;;;11.10;3.17;;;;;;;23.36;100.00;101197.50;4935401;29;20514;-52
2023/08/13 23:31:08;;;;;;;12.20;3.67;;;;;;;23.38;100.00;101194.19;4936250;29;20044;-47
2023/08/13 23:33:35;;;;;;;11.40;3.85;;;;;;;23.43;100.00;101199.97;4940791;29;20059;-54
2023/08/13 23:36:01;;;;;;;8.13;3.22;;;;;;;23.31;100.00;101200.28;4930570;29;20142;-51
2023/08/13 23:38:28;;;;;;;10.18;3.38;;;;;;;23.53;100.00;101197.75;4946071;29;20027;-47
2023/08/13 23:40:54;;;;;;;13.10;3.30;;;;;;;23.51;100.00;101191.78;4944211;29;20051;-50
2023/08/13 23:43:21;;;;;;;10.57;3.63;;;;;;;23.38;100.00;101200.66;4934710;29;20059;-48
2023/08/13 23:45:48;;;;;;;10.85;3.40;;;;;;;23.36;100.00;101208.84;4943914;29;20094;-49
2023/08/13 23:48:15;;;;;;;8.57;2.85;;;;;;;23.51;100.00;101198.25;4936776;29;20060;-51
2023/08/13 23:50:41;;;;;;;10.07;3.50;;;;;;;23.58;100.00;101205.53;4938950;28;20507;-53
2023/08/13 23:53:21;;;;;;;9.88;3.00;;;;;;;23.42;100.00;101211.81;4935010;29;20060;-51
2023/08/13 23:55:48;;;;;;;8.30;3.03;;;;;;;23.75;100.00;101207.38;4946170;29;20047;-49
2023/08/13 23:58:14;;;;;;;10.45;3.40;;;;;;;23.59;100.00;101215.66;4940347;29;20122;-51
